sensor_id;sensor_type;location;lat;lon;timestamp;pressure;altitude;pressure_sealevel;temperature;humidity
48778;BME280;34578;0.000;0.000;2023-05-11T00:01:46;96504.28;;;18.31;61.21
48778;BME280;34578;0.000;0.000;2023-05-11T00:06:46;96488.22;;;18.23;60.48
48778;BME280;34578;0.000;0.000;2023-05-11T00:11:46;96483.16;;;18.18;59.34
48778;BME280;34578;0.000;0.000;2023-05-11T00:16:47;96485.72;;;18.15;59.03
48778;BME280;34578;0.000;0.000;2023-05-11T00:21:47;96475.59;;;18.14;58.96
48778;BME280;34578;0.000;0.000;2023-05-11T00:26:48;96475.59;;;18.12;58.77
48778;BME280;34578;0.000;0.000;2023-05-11T00:31:48;96473.91;;;18.10;58.79
48778;BME280;34578;0.000;0.000;2023-05-11T00:36:49;96476.44;;;18.10;58.74
48778;BME280;34578;0.000;0.000;2023-05-11T00:41:49;96466.31;;;18.10;58.56
48778;BME280;34578;0.000;0.000;2023-05-11T00:46:50;96466.31;;;18.08;58.36
48778;BME280;34578;0.000;0.000;2023-05-11T00:51:50;96468.78;;;18.28;60.69
48778;BME280;34578;0.000;0.000;2023-05-11T00:56:50;96462.03;;;18.39;63.25
48778;BME280;34578;0.000;0.000;2023-05-11T01:01:51;96462.03;;;18.37;60.94
48778;BME280;34578;0.000;0.000;2023-05-11T01:06:59;96456.13;;;18.26;61.26
48778;BME280;34578;0.000;0.000;2023-05-11T01:12:32;96458.69;;;18.20;60.55
48778;BME280;34578;0.000;0.000;2023-05-11T01:18:00;96464.59;;;18.16;59.41
48778;BME280;34578;0.000;0.000;2023-05-11T01:33:48;96466.31;;;18.10;58.79
48778;BME280;34578;0.000;0.000;2023-05-11T01:38:51;96458.72;;;18.10;58.61
48778;BME280;34578;0.000;0.000;2023-05-11T01:43:56;96466.31;;;18.08;58.50
48778;BME280;34578;0.000;0.000;2023-05-11T01:48:59;96470.56;;;18.08;58.45
48778;BME280;34578;0.000;0.000;2023-05-11T01:54:05;96471.38;;;18.20;61.06
48778;BME280;34578;0.000;0.000;2023-05-11T01:59:07;96469.63;;;18.34;63.69
48778;BME280;34578;0.000;0.000;2023-05-11T02:04:08;96473.00;;;18.38;61.37
48778;BME280;34578;0.000;0.000;2023-05-11T02:09:11;96473.84;;;18.28;61.70
48778;BME280;34578;0.000;0.000;2023-05-11T02:14:13;96483.19;;;18.21;60.82
48778;BME280;34578;0.000;0.000;2023-05-11T02:19:15;96476.41;;;18.17;59.75
48778;BME280;34578;0.000;0.000;2023-05-11T02:24:18;96475.59;;;18.14;59.35
48778;BME280;34578;0.000;0.000;2023-05-11T02:29:20;96463.75;;;18.13;59.08
48778;BME280;34578;0.000;0.000;2023-05-11T02:34:26;96465.47;;;18.11;58.83
48778;BME280;34578;0.000;0.000;2023-05-11T02:39:32;96462.09;;;18.09;58.50
48778;BME280;34578;0.000;0.000;2023-05-11T02:44:35;96465.47;;;18.08;58.52
48778;BME280;34578;0.000;0.000;2023-05-11T02:49:37;96460.41;;;18.08;58.54
48778;BME280;34578;0.000;0.000;2023-05-11T02:54:41;96468.88;;;18.07;58.40
48778;BME280;34578;0.000;0.000;2023-05-11T02:59:44;96462.91;;;18.27;64.69
48778;BME280;34578;0.000;0.000;2023-05-11T03:04:44;96456.97;;;18.36;66.14
48778;BME280;34578;0.000;0.000;2023-05-11T03:09:46;96447.72;;;18.32;61.65
48778;BME280;34578;0.000;0.000;2023-05-11T03:14:47;96448.53;;;18.22;61.64
48778;BME280;34578;0.000;0.000;2023-05-11T03:19:48;96450.25;;;18.17;60.96
48778;BME280;34578;0.000;0.000;2023-05-11T03:24:50;96447.72;;;18.14;59.96
48778;BME280;34578;0.000;0.000;2023-05-11T03:29:52;96442.66;;;18.11;59.28
48778;BME280;34578;0.000;0.000;2023-05-11T03:34:53;96448.59;;;18.10;58.97
48778;BME280;34578;0.000;0.000;2023-05-11T03:39:56;96448.59;;;18.10;58.73
48778;BME280;34578;0.000;0.000;2023-05-11T03:44:59;96445.22;;;18.08;58.53
48778;BME280;34578;0.000;0.000;2023-05-11T03:50:01;96440.16;;;18.08;59.94
48778;BME280;34578;0.000;0.000;2023-05-11T03:55:03;96428.31;;;18.04;58.52
48778;BME280;34578;0.000;0.000;2023-05-11T04:00:04;96430.00;;;18.12;62.61
48778;BME280;34578;0.000;0.000;2023-05-11T04:05:15;96434.19;;;18.30;65.87
48778;BME280;34578;0.000;0.000;2023-05-11T04:10:19;96426.56;;;18.36;65.15
48778;BME280;34578;0.000;0.000;2023-05-11T04:15:19;96435.00;;;18.29;61.51
48778;BME280;34578;0.000;0.000;2023-05-11T04:20:21;96435.88;;;18.20;61.16
48778;BME280;34578;0.000;0.000;2023-05-11T04:25:21;96438.41;;;18.17;60.19
48778;BME280;34578;0.000;0.000;2023-05-11T04:30:22;96429.16;;;18.13;60.00
48778;BME280;34578;0.000;0.000;2023-05-11T04:35:25;96430.03;;;18.08;59.01
48778;BME280;34578;0.000;0.000;2023-05-11T04:40:26;96421.56;;;18.09;60.04
48778;BME280;34578;0.000;0.000;2023-05-11T04:45:27;96436.78;;;17.97;60.68
48778;BME280;34578;0.000;0.000;2023-05-11T04:50:27;96435.97;;;17.90;59.89
48778;BME280;34578;0.000;0.000;2023-05-11T04:55:28;96447.78;;;17.82;60.65
48778;BME280;34578;0.000;0.000;2023-05-11T05:00:30;96443.59;;;17.83;60.39
48778;BME280;34578;0.000;0.000;2023-05-11T05:05:30;96450.31;;;17.93;61.12
48778;BME280;34578;0.000;0.000;2023-05-11T05:10:31;96452.00;;;17.94;61.03
48778;BME280;34578;0.000;0.000;2023-05-11T05:15:31;96451.19;;;17.87;60.49
48778;BME280;34578;0.000;0.000;2023-05-11T05:20:32;96449.47;;;17.95;60.48
48778;BME280;34578;0.000;0.000;2023-05-11T05:25:34;96453.66;;;17.99;60.27
48778;BME280;34578;0.000;0.000;2023-05-11T05:30:35;96448.63;;;18.02;60.40
48778;BME280;34578;0.000;0.000;2023-05-11T05:35:36;96454.56;;;17.77;59.36
48778;BME280;34578;0.000;0.000;2023-05-11T05:40:37;96457.94;;;17.84;59.47
48778;BME280;34578;0.000;0.000;2023-05-11T05:45:39;96457.91;;;17.93;59.47
48778;BME280;34578;0.000;0.000;2023-05-11T05:50:39;96457.06;;;17.95;58.88
48778;BME280;34578;0.000;0.000;2023-05-11T05:55:40;96457.03;;;17.97;58.85
48778;BME280;34578;0.000;0.000;2023-05-11T06:00:41;96468.88;;;17.96;58.67
48778;BME280;34578;0.000;0.000;2023-05-11T06:05:43;96463.81;;;17.95;58.61
48778;BME280;34578;0.000;0.000;2023-05-11T06:10:45;96467.16;;;18.09;61.23
48778;BME280;34578;0.000;0.000;2023-05-11T06:15:45;96463.78;;;18.16;61.04
48778;BME280;34578;0.000;0.000;2023-05-11T06:20:54;96460.38;;;18.17;59.92
48778;BME280;34578;0.000;0.000;2023-05-11T06:25:55;96466.28;;;18.13;60.03
48778;BME280;34578;0.000;0.000;2023-05-11T06:30:56;96461.28;;;18.07;59.58
48778;BME280;34578;0.000;0.000;2023-05-11T06:36:05;96461.25;;;18.04;59.12
48778;BME280;34578;0.000;0.000;2023-05-11T06:41:05;96463.81;;;18.02;58.84
48778;BME280;34578;0.000;0.000;2023-05-11T06:46:06;96464.63;;;18.01;58.71
48778;BME280;34578;0.000;0.000;2023-05-11T06:51:10;96462.09;;;18.01;58.51
48778;BME280;34578;0.000;0.000;2023-05-11T06:56:10;96463.81;;;18.01;58.14
48778;BME280;34578;0.000;0.000;2023-05-11T07:01:11;96462.13;;;18.00;58.43
48778;BME280;34578;0.000;0.000;2023-05-11T07:06:11;96456.19;;;17.99;58.36
48778;BME280;34578;0.000;0.000;2023-05-11T07:11:11;96455.38;;;17.99;58.32
48778;BME280;34578;0.000;0.000;2023-05-11T07:16:12;96460.38;;;18.14;61.20
48778;BME280;34578;0.000;0.000;2023-05-11T07:21:13;96460.38;;;18.20;61.18
48778;BME280;34578;0.000;0.000;2023-05-11T07:26:13;96462.06;;;18.18;60.45
48778;BME280;34578;0.000;0.000;2023-05-11T07:31:13;96462.94;;;18.11;60.28
48778;BME280;34578;0.000;0.000;2023-05-11T07:36:14;96463.81;;;18.07;59.94
48778;BME280;34578;0.000;0.000;2023-05-11T07:41:14;96466.31;;;18.04;59.53
48778;BME280;34578;0.000;0.000;2023-05-11T07:46:15;96464.63;;;18.03;59.07
48778;BME280;34578;0.000;0.000;2023-05-11T07:51:15;96465.50;;;18.02;58.89
48778;BME280;34578;0.000;0.000;2023-05-11T07:56:15;96469.69;;;18.01;58.67
48778;BME280;34578;0.000;0.000;2023-05-11T08:01:16;96467.19;;;18.00;58.66
48778;BME280;34578;0.000;0.000;2023-05-11T08:06:16;96465.50;;;17.99;58.33
48778;BME280;34578;0.000;0.000;2023-05-11T08:11:16;96463.81;;;17.98;58.16
48778;BME280;34578;0.000;0.000;2023-05-11T08:16:17;96468.03;;;17.99;58.24
48778;BME280;34578;0.000;0.000;2023-05-11T08:21:17;96462.91;;;18.15;61.52
48778;BME280;34578;0.000;0.000;2023-05-11T08:26:18;96462.91;;;18.20;61.47
48778;BME280;34578;0.000;0.000;2023-05-11T08:31:19;96462.94;;;18.17;60.54
48778;BME280;34578;0.000;0.000;2023-05-11T08:36:21;96457.84;;;18.09;60.19
48778;BME280;34578;0.000;0.000;2023-05-11T08:41:22;96448.59;;;18.04;59.76
48778;BME280;34578;0.000;0.000;2023-05-11T08:46:23;96459.56;;;18.03;59.51
48778;BME280;34578;0.000;0.000;2023-05-11T08:51:27;96460.41;;;18.00;58.83
48778;BME280;34578;0.000;0.000;2023-05-11T08:56:28;96461.28;;;17.98;58.61
48778;BME280;34578;0.000;0.000;2023-05-11T09:01:30;96460.44;;;17.99;58.36
48778;BME280;34578;0.000;0.000;2023-05-11T09:06:31;96455.38;;;17.99;58.29
48778;BME280;34578;0.000;0.000;2023-05-11T09:11:32;96457.91;;;17.97;58.15
48778;BME280;34578;0.000;0.000;2023-05-11T09:16:33;96465.50;;;17.96;58.18
48778;BME280;34578;0.000;0.000;2023-05-11T09:21:33;96462.13;;;18.00;60.47
48778;BME280;34578;0.000;0.000;2023-05-11T09:26:35;96455.31;;;18.14;61.23
48778;BME280;34578;0.000;0.000;2023-05-11T09:31:46;96451.09;;;18.19;60.85
48778;BME280;34578;0.000;0.000;2023-05-11T09:36:48;96452.78;;;18.14;60.35
48778;BME280;34578;0.000;0.000;2023-05-11T09:41:49;96444.38;;;18.07;60.13
48778;BME280;34578;0.000;0.000;2023-05-11T09:46:49;96445.22;;;18.02;59.68
48778;BME280;34578;0.000;0.000;2023-05-11T09:51:59;96438.47;;;18.01;59.03
48778;BME280;34578;0.000;0.000;2023-05-11T09:56:59;96435.94;;;17.99;58.93
48778;BME280;34578;0.000;0.000;2023-05-11T10:02:24;96435.13;;;17.99;58.55
48778;BME280;34578;0.000;0.000;2023-05-11T10:07:27;96432.56;;;17.97;58.39
48778;BME280;34578;0.000;0.000;2023-05-11T10:12:29;96429.19;;;17.97;58.22
48778;BME280;34578;0.000;0.000;2023-05-11T10:17:32;96426.66;;;17.97;58.40
48778;BME280;34578;0.000;0.000;2023-05-11T10:22:32;96429.22;;;17.95;58.44
48778;BME280;34578;0.000;0.000;2023-05-11T10:27:33;96426.63;;;18.06;60.02
48778;BME280;34578;0.000;0.000;2023-05-11T10:32:35;96413.94;;;18.13;61.25
48778;BME280;34578;0.000;0.000;2023-05-11T10:37:41;96402.13;;;18.17;60.38
48778;BME280;34578;0.000;0.000;2023-05-11T10:58:20;96394.59;;;17.99;58.88
48778;BME280;34578;0.000;0.000;2023-05-11T11:03:27;96392.91;;;17.98;58.49
48778;BME280;34578;0.000;0.000;2023-05-11T11:08:27;96395.44;;;17.98;58.16
48778;BME280;34578;0.000;0.000;2023-05-11T11:13:28;96402.16;;;18.00;57.66
48778;BME280;34578;0.000;0.000;2023-05-11T11:18:29;96400.47;;;17.99;57.88
48778;BME280;34578;0.000;0.000;2023-05-11T11:34:35;96389.44;;;18.17;60.76
48778;BME280;34578;0.000;0.000;2023-05-11T11:44:43;96367.50;;;18.13;59.10
48778;BME280;34578;0.000;0.000;2023-05-11T11:49:46;96370.91;;;18.09;57.98
48778;BME280;34578;0.000;0.000;2023-05-11T11:54:47;96363.31;;;18.04;58.00
48778;BME280;34578;0.000;0.000;2023-05-11T11:59:47;96359.94;;;18.04;57.95
48778;BME280;34578;0.000;0.000;2023-05-11T12:04:56;96361.63;;;18.02;58.01
48778;BME280;34578;0.000;0.000;2023-05-11T12:09:57;96365.03;;;18.01;58.01
48778;BME280;34578;0.000;0.000;2023-05-11T12:14:57;96359.09;;;18.02;58.10
48778;BME280;34578;0.000;0.000;2023-05-11T12:20:18;96362.50;;;18.01;57.78
48778;BME280;34578;0.000;0.000;2023-05-11T12:25:19;96364.16;;;18.02;57.81
48778;BME280;34578;0.000;0.000;2023-05-11T12:30:22;96360.81;;;18.00;57.76
48778;BME280;34578;0.000;0.000;2023-05-11T12:35:27;96360.78;;;18.04;60.08
48778;BME280;34578;0.000;0.000;2023-05-11T12:40:29;96359.03;;;18.20;63.50
48778;BME280;34578;0.000;0.000;2023-05-11T12:45:30;96359.84;;;18.23;61.82
48778;BME280;34578;0.000;0.000;2023-05-11T12:50:30;96353.97;;;18.17;60.10
48778;BME280;34578;0.000;0.000;2023-05-11T12:55:31;96350.63;;;18.10;58.42
48778;BME280;34578;0.000;0.000;2023-05-11T13:00:31;96349.81;;;18.07;58.22
48778;BME280;34578;0.000;0.000;2023-05-11T13:05:32;96354.00;;;18.05;58.32
48778;BME280;34578;0.000;0.000;2023-05-11T13:10:32;96357.41;;;18.04;58.15
48778;BME280;34578;0.000;0.000;2023-05-11T13:15:32;96360.78;;;18.03;58.03
48778;BME280;34578;0.000;0.000;2023-05-11T13:20:33;96358.28;;;18.00;58.73
48778;BME280;34578;0.000;0.000;2023-05-11T13:25:50;96367.56;;;18.01;57.89
48778;BME280;34578;0.000;0.000;2023-05-11T13:31:01;96354.91;;;18.02;59.44
48778;BME280;34578;0.000;0.000;2023-05-11T13:36:01;96359.09;;;18.02;58.53
48778;BME280;34578;0.000;0.000;2023-05-11T13:41:02;96357.34;;;18.13;60.93
48778;BME280;34578;0.000;0.000;2023-05-11T13:46:02;96356.47;;;18.27;61.96
48778;BME280;34578;0.000;0.000;2023-05-11T13:51:04;96346.31;;;18.23;60.67
48778;BME280;34578;0.000;0.000;2023-05-11T13:56:04;96333.69;;;18.14;58.42
48778;BME280;34578;0.000;0.000;2023-05-11T14:01:07;96338.81;;;18.08;58.16
48778;BME280;34578;0.000;0.000;2023-05-11T14:06:07;96330.38;;;18.06;58.20
48778;BME280;34578;0.000;0.000;2023-05-11T14:11:08;96321.94;;;18.04;58.97
48778;BME280;34578;0.000;0.000;2023-05-11T14:16:08;96323.66;;;18.03;58.54
48778;BME280;34578;0.000;0.000;2023-05-11T14:21:09;96317.72;;;18.03;58.26
48778;BME280;34578;0.000;0.000;2023-05-11T14:26:10;96310.16;;;18.00;58.15
48778;BME280;34578;0.000;0.000;2023-05-11T14:31:11;96305.91;;;18.02;58.30
48778;BME280;34578;0.000;0.000;2023-05-11T14:36:11;96305.09;;;18.00;57.71
48778;BME280;34578;0.000;0.000;2023-05-11T14:41:12;96301.69;;;18.01;57.81
48778;BME280;34578;0.000;0.000;2023-05-11T14:46:12;96298.22;;;18.20;60.92
48778;BME280;34578;0.000;0.000;2023-05-11T14:51:13;96299.88;;;18.30;60.58
48778;BME280;34578;0.000;0.000;2023-05-11T14:56:13;96296.50;;;18.22;60.02
48778;BME280;34578;0.000;0.000;2023-05-11T15:01:14;96295.72;;;18.11;58.34
48778;BME280;34578;0.000;0.000;2023-05-11T15:06:14;96289.84;;;18.06;57.98
48778;BME280;34578;0.000;0.000;2023-05-11T15:11:20;96289.84;;;18.03;57.62
48778;BME280;34578;0.000;0.000;2023-05-11T15:16:20;96286.50;;;18.01;57.69
48778;BME280;34578;0.000;0.000;2023-05-11T15:21:21;96272.16;;;18.00;57.34
48778;BME280;34578;0.000;0.000;2023-05-11T15:26:21;96276.41;;;17.98;57.53
48778;BME280;34578;0.000;0.000;2023-05-11T15:31:22;96267.94;;;17.99;57.58
48778;BME280;34578;0.000;0.000;2023-05-11T15:36:22;96267.94;;;17.99;57.41
48778;BME280;34578;0.000;0.000;2023-05-11T15:41:22;96261.19;;;17.98;57.49
48778;BME280;34578;0.000;0.000;2023-05-11T15:46:23;96267.91;;;18.02;58.74
48778;BME280;34578;0.000;0.000;2023-05-11T15:51:23;96266.94;;;18.21;60.10
48778;BME280;34578;0.000;0.000;2023-05-11T15:56:24;96264.41;;;18.24;58.34
48778;BME280;34578;0.000;0.000;2023-05-11T16:01:25;96258.56;;;18.16;58.25
48778;BME280;34578;0.000;0.000;2023-05-11T16:06:25;96259.44;;;18.09;57.86
48778;BME280;34578;0.000;0.000;2023-05-11T16:11:27;96256.91;;;18.06;57.68
48778;BME280;34578;0.000;0.000;2023-05-11T16:16:27;96261.16;;;18.07;57.61
48778;BME280;34578;0.000;0.000;2023-05-11T16:21:28;96254.38;;;18.06;57.61
48778;BME280;34578;0.000;0.000;2023-05-11T16:26:29;96254.38;;;18.06;57.71
48778;BME280;34578;0.000;0.000;2023-05-11T16:31:30;96257.78;;;18.02;57.48
48778;BME280;34578;0.000;0.000;2023-05-11T16:36:30;96258.66;;;18.02;57.51
48778;BME280;34578;0.000;0.000;2023-05-11T16:41:30;96259.50;;;18.00;57.29
48778;BME280;34578;0.000;0.000;2023-05-11T16:46:31;96255.25;;;18.00;57.26
48778;BME280;34578;0.000;0.000;2023-05-11T16:51:31;96265.34;;;18.11;60.49
48778;BME280;34578;0.000;0.000;2023-05-11T16:56:33;96255.97;;;18.25;62.84
48778;BME280;34578;0.000;0.000;2023-05-11T17:01:33;96260.19;;;18.30;61.49
48778;BME280;34578;0.000;0.000;2023-05-11T17:06:34;96254.31;;;18.18;59.75
48778;BME280;34578;0.000;0.000;2023-05-11T17:11:34;96256.91;;;18.07;58.51
48778;BME280;34578;0.000;0.000;2023-05-11T17:16:34;96262.00;;;18.03;58.05
48778;BME280;34578;0.000;0.000;2023-05-11T17:21:35;96267.91;;;18.02;59.36
48778;BME280;34578;0.000;0.000;2023-05-11T17:26:35;96269.63;;;18.00;58.13
48778;BME280;34578;0.000;0.000;2023-05-11T17:31:36;96284.81;;;17.98;58.86
48778;BME280;34578;0.000;0.000;2023-05-11T17:36:38;96286.56;;;17.92;58.31
48778;BME280;34578;0.000;0.000;2023-05-11T17:41:39;96294.16;;;17.87;58.82
48778;BME280;34578;0.000;0.000;2023-05-11T17:46:39;96298.38;;;17.87;59.04
48778;BME280;34578;0.000;0.000;2023-05-11T17:51:39;96302.63;;;17.83;60.05
48778;BME280;34578;0.000;0.000;2023-05-11T17:56:40;96306.00;;;17.85;59.59
48778;BME280;34578;0.000;0.000;2023-05-11T18:01:41;96312.69;;;17.92;60.13
48778;BME280;34578;0.000;0.000;2023-05-11T18:06:41;96317.78;;;17.91;60.19
48778;BME280;34578;0.000;0.000;2023-05-11T18:11:42;96326.25;;;17.90;60.32
48778;BME280;34578;0.000;0.000;2023-05-11T18:16:42;96316.94;;;17.92;60.16
48778;BME280;34578;0.000;0.000;2023-05-11T18:21:43;96319.50;;;17.87;61.13
48778;BME280;34578;0.000;0.000;2023-05-11T18:26:43;96314.38;;;17.93;59.43
48778;BME280;34578;0.000;0.000;2023-05-11T18:31:44;96305.06;;;18.03;58.82
48778;BME280;34578;0.000;0.000;2023-05-11T18:36:44;96309.28;;;18.05;58.49
48778;BME280;34578;0.000;0.000;2023-05-11T18:41:45;96297.47;;;18.03;58.28
48778;BME280;34578;0.000;0.000;2023-05-11T18:46:45;96305.88;;;18.11;58.09
48778;BME280;34578;0.000;0.000;2023-05-11T18:51:45;96300.00;;;18.04;58.03
48778;BME280;34578;0.000;0.000;2023-05-11T18:56:46;96323.56;;;18.17;60.51
48778;BME280;34578;0.000;0.000;2023-05-11T19:01:46;96323.53;;;18.26;60.31
48778;BME280;34578;0.000;0.000;2023-05-11T19:06:47;96318.44;;;18.23;57.84
48778;BME280;34578;0.000;0.000;2023-05-11T19:11:47;96323.56;;;18.20;58.20
48778;BME280;34578;0.000;0.000;2023-05-11T19:16:48;96326.09;;;18.20;58.05
48778;BME280;34578;0.000;0.000;2023-05-11T19:21:48;96331.16;;;18.18;58.09
48778;BME280;34578;0.000;0.000;2023-05-11T19:26:49;96336.25;;;18.17;57.88
48778;BME280;34578;0.000;0.000;2023-05-11T19:31:50;96330.34;;;18.12;57.97
48778;BME280;34578;0.000;0.000;2023-05-11T19:36:50;96342.16;;;18.14;57.67
48778;BME280;34578;0.000;0.000;2023-05-11T19:41:51;96354.84;;;18.14;57.62
48778;BME280;34578;0.000;0.000;2023-05-11T19:46:51;96346.41;;;18.12;57.65
48778;BME280;34578;0.000;0.000;2023-05-11T19:51:51;96357.38;;;18.10;57.46
48778;BME280;34578;0.000;0.000;2023-05-11T19:56:52;96363.31;;;18.10;57.46
48778;BME280;34578;0.000;0.000;2023-05-11T20:01:53;96357.31;;;18.23;60.92
48778;BME280;34578;0.000;0.000;2023-05-11T20:06:54;96364.94;;;18.29;63.99
48778;BME280;34578;0.000;0.000;2023-05-11T20:11:54;96364.06;;;18.23;58.95
48778;BME280;34578;0.000;0.000;2023-05-11T20:16:55;96368.31;;;18.16;57.79
48778;BME280;34578;0.000;0.000;2023-05-11T20:21:55;96366.66;;;18.12;57.70
48778;BME280;34578;0.000;0.000;2023-05-11T20:26:56;96370.91;;;18.09;57.89
48778;BME280;34578;0.000;0.000;2023-05-11T20:31:57;96362.47;;;18.07;57.65
48778;BME280;34578;0.000;0.000;2023-05-11T20:36:57;96366.69;;;18.08;57.40
48778;BME280;34578;0.000;0.000;2023-05-11T20:41:58;96365.00;;;18.04;57.41
48778;BME280;34578;0.000;0.000;2023-05-11T20:46:58;96370.91;;;18.03;57.54
48778;BME280;34578;0.000;0.000;2023-05-11T20:51:59;96364.16;;;18.02;57.38
48778;BME280;34578;0.000;0.000;2023-05-11T20:57:00;96359.97;;;18.02;57.25
48778;BME280;34578;0.000;0.000;2023-05-11T21:02:01;96363.28;;;18.06;61.14
48778;BME280;34578;0.000;0.000;2023-05-11T21:07:02;96363.25;;;18.22;62.59
48778;BME280;34578;0.000;0.000;2023-05-11T21:12:02;96363.22;;;18.28;62.07
48778;BME280;34578;0.000;0.000;2023-05-11T21:17:03;96368.31;;;18.21;57.99
48778;BME280;34578;0.000;0.000;2023-05-11T21:22:03;96367.50;;;18.16;57.44
48778;BME280;34578;0.000;0.000;2023-05-11T21:27:06;96369.19;;;18.14;57.37
48778;BME280;34578;0.000;0.000;2023-05-11T21:32:06;96364.97;;;18.10;57.43
48778;BME280;34578;0.000;0.000;2023-05-11T21:37:07;96367.53;;;18.07;57.62
48778;BME280;34578;0.000;0.000;2023-05-11T21:42:07;96370.06;;;18.05;57.45
48778;BME280;34578;0.000;0.000;2023-05-11T21:47:08;96362.50;;;18.02;57.23
48778;BME280;34578;0.000;0.000;2023-05-11T21:52:10;96361.66;;;18.03;57.34
48778;BME280;34578;0.000;0.000;2023-05-11T21:57:11;96359.09;;;18.02;57.13
48778;BME280;34578;0.000;0.000;2023-05-11T22:02:11;96354.03;;;18.00;57.35
48778;BME280;34578;0.000;0.000;2023-05-11T22:07:12;96353.16;;;18.09;59.74
48778;BME280;34578;0.000;0.000;2023-05-11T22:12:12;96359.03;;;18.21;63.75
48778;BME280;34578;0.000;0.000;2023-05-11T22:17:13;96354.78;;;18.25;61.99
48778;BME280;34578;0.000;0.000;2023-05-11T22:22:14;96354.84;;;18.14;60.64
48778;BME280;34578;0.000;0.000;2023-05-11T22:27:14;96348.97;;;18.08;57.93
48778;BME280;34578;0.000;0.000;2023-05-11T22:32:15;96353.19;;;18.04;57.71
48778;BME280;34578;0.000;0.000;2023-05-11T22:37:15;96349.84;;;18.02;57.82
48778;BME280;34578;0.000;0.000;2023-05-11T22:42:15;96356.56;;;18.00;57.49
48778;BME280;34578;0.000;0.000;2023-05-11T22:47:16;96362.47;;;17.99;57.56
48778;BME280;34578;0.000;0.000;2023-05-11T22:52:16;96364.19;;;17.99;57.48
48778;BME280;34578;0.000;0.000;2023-05-11T22:57:16;96356.59;;;17.97;57.29
48778;BME280;34578;0.000;0.000;2023-05-11T23:02:17;96354.91;;;17.96;57.30
48778;BME280;34578;0.000;0.000;2023-05-11T23:07:18;96359.13;;;17.96;57.30
48778;BME280;34578;0.000;0.000;2023-05-11T23:12:18;96359.09;;;18.08;60.09
48778;BME280;34578;0.000;0.000;2023-05-11T23:17:19;96355.66;;;18.18;63.51
48778;BME280;34578;0.000;0.000;2023-05-11T23:22:19;96357.34;;;18.19;61.33
48778;BME280;34578;0.000;0.000;2023-05-11T23:27:19;96351.47;;;18.09;60.34
48778;BME280;34578;0.000;0.000;2023-05-11T23:32:20;96357.41;;;18.04;57.68
48778;BME280;34578;0.000;0.000;2023-05-11T23:37:23;96352.34;;;18.01;57.72
48778;BME280;34578;0.000;0.000;2023-05-11T23:42:23;96349.81;;;17.99;57.42
48778;BME280;34578;0.000;0.000;2023-05-11T23:47:23;96344.78;;;17.98;57.50
48778;BME280;34578;0.000;0.000;2023-05-11T23:52:24;96334.66;;;17.96;57.40
48778;BME280;34578;0.000;0.000;2023-05-11T23:57:24;96327.91;;;17.95;57.12
